createdAt,value
2022-10-12T00:01:50.353Z,6.60
2022-10-12T00:03:52.434Z,5.37
2022-10-12T00:06:05.689Z,6.03
2022-10-12T00:08:07.739Z,5.63
2022-10-12T00:10:09.766Z,5.03
2022-10-12T00:12:11.670Z,5.20
2022-10-12T00:14:13.650Z,5.30
2022-10-12T00:16:17.760Z,4.80
2022-10-12T00:18:19.838Z,5.43
2022-10-12T00:20:21.837Z,4.90
2022-10-12T00:22:23.749Z,5.57
2022-10-12T00:24:25.766Z,6.90
2022-10-12T00:26:28.788Z,4.90
2022-10-12T00:28:31.235Z,5.57
2022-10-12T00:30:33.880Z,5.10
2022-10-12T00:32:35.808Z,4.30
2022-10-12T00:34:37.731Z,5.30
2022-10-12T00:36:39.709Z,4.87
2022-10-12T00:38:41.719Z,4.80
2022-10-12T00:40:43.697Z,5.90
2022-10-12T00:42:45.681Z,4.70
2022-10-12T00:44:49.455Z,5.60
2022-10-12T00:46:52.986Z,4.60
2022-10-12T00:49:17.524Z,5.13
2022-10-12T00:51:20.427Z,4.40
2022-10-12T00:53:26.578Z,3.90
2022-10-12T00:55:31.003Z,5.17
2022-10-12T00:57:33.002Z,5.00
2022-10-12T00:59:58.390Z,5.00
2022-10-12T01:02:00.512Z,4.17
2022-10-12T01:04:02.782Z,4.40
2022-10-12T01:06:06.506Z,4.70
2022-10-12T01:08:08.507Z,5.20
2022-10-12T01:10:11.036Z,7.97
2022-10-12T01:12:13.366Z,11.70
2022-10-12T01:14:15.695Z,10.37
2022-10-12T01:16:27.491Z,10.70
2022-10-12T01:19:01.762Z,11.13
2022-10-12T01:21:23.715Z,8.60
2022-10-12T01:24:03.274Z,10.03
2022-10-12T01:26:19.121Z,9.37
2022-10-12T01:28:42.912Z,9.33
2022-10-12T01:30:48.887Z,11.13
2022-10-12T01:33:03.265Z,10.50
2022-10-12T01:35:25.728Z,10.10
2022-10-12T01:37:37.537Z,11.63
2022-10-12T01:39:50.828Z,10.30
2022-10-12T01:41:56.754Z,11.40
2022-10-12T01:43:58.672Z,10.47
2022-10-12T01:46:16.591Z,9.63
2022-10-12T01:48:18.818Z,9.93
2022-10-12T01:50:23.201Z,9.43
2022-10-12T01:52:30.712Z,11.03
2022-10-12T01:55:09.713Z,8.80
2022-10-12T01:57:20.744Z,7.90
2022-10-12T01:59:35.270Z,8.27
2022-10-12T02:01:53.425Z,9.33
2022-10-12T02:04:19.256Z,8.83
2022-10-12T02:06:23.426Z,8.90
2022-10-12T02:08:31.502Z,8.33
2022-10-12T02:10:37.982Z,10.53
2022-10-12T02:12:41.623Z,8.13
2022-10-12T02:14:47.130Z,7.70
2022-10-12T02:16:57.628Z,8.30
2022-10-12T02:19:00.372Z,7.50
2022-10-12T02:21:03.912Z,6.90
2022-10-12T02:23:06.371Z,7.70
2022-10-12T02:25:11.182Z,6.47
2022-10-12T02:27:14.254Z,6.30
2022-10-12T02:29:20.652Z,6.47
2022-10-12T02:31:54.993Z,5.67
2022-10-12T02:34:14.035Z,6.10
2022-10-12T02:36:20.434Z,5.37
2022-10-12T02:38:27.542Z,5.80
2022-10-12T02:40:29.350Z,6.20
2022-10-12T02:43:05.279Z,5.10
2022-10-12T02:44:58.964Z,4.10
2022-10-12T02:47:02.265Z,5.20
2022-10-12T02:49:05.215Z,5.20
2022-10-12T02:51:08.455Z,4.53
2022-10-12T02:53:12.594Z,5.67
2022-10-12T02:55:14.695Z,5.17
2022-10-12T02:57:16.634Z,4.60
2022-10-12T02:59:19.145Z,4.30
2022-10-12T03:01:21.288Z,4.50
2022-10-12T03:03:23.322Z,5.10
2022-10-12T03:05:25.280Z,4.70
2022-10-12T03:07:27.218Z,4.90
2022-10-12T03:09:29.196Z,3.93
2022-10-12T03:11:31.768Z,5.70
2022-10-12T03:13:34.065Z,5.07
2022-10-12T03:15:36.019Z,4.83
2022-10-12T03:17:38.204Z,4.30
2022-10-12T03:19:40.395Z,4.80
2022-10-12T03:21:42.350Z,4.90
2022-10-12T03:23:44.251Z,4.70
2022-10-12T03:25:46.214Z,4.60
2022-10-12T03:27:48.121Z,4.77
2022-10-12T03:29:50.140Z,5.17
2022-10-12T03:31:52.035Z,4.97
2022-10-12T03:33:53.983Z,5.27
2022-10-12T03:35:56.008Z,5.70
2022-10-12T03:37:58.143Z,4.30
2022-10-12T03:40:00.092Z,5.30
2022-10-12T03:42:02.080Z,5.10
2022-10-12T03:44:04.178Z,6.80
2022-10-12T03:46:06.282Z,6.73
2022-10-12T03:48:09.074Z,6.70
2022-10-12T03:50:10.975Z,6.37
2022-10-12T03:52:12.962Z,5.87
2022-10-12T03:54:15.062Z,6.70
2022-10-12T03:56:17.007Z,6.20
2022-10-12T03:58:18.940Z,6.10
2022-10-12T04:00:21.108Z,6.00
2022-10-12T04:02:23.122Z,6.73
2022-10-12T04:04:25.058Z,7.20
2022-10-12T04:06:27.243Z,7.10
2022-10-12T04:08:29.374Z,7.00
2022-10-12T04:10:31.278Z,7.60
2022-10-12T04:12:33.280Z,7.90
2022-10-12T04:14:35.399Z,7.80
2022-10-12T04:16:37.875Z,7.53
2022-10-12T04:18:40.049Z,7.50
2022-10-12T04:20:41.982Z,8.17
2022-10-12T04:22:44.013Z,8.90
2022-10-12T04:24:46.119Z,8.50
2022-10-12T04:26:48.216Z,10.10
2022-10-12T04:28:50.391Z,8.87
2022-10-12T04:30:52.440Z,10.23
2022-10-12T04:32:54.380Z,10.30
2022-10-12T04:34:56.291Z,8.30
2022-10-12T04:36:58.216Z,7.93
2022-10-12T04:39:01.344Z,7.73
2022-10-12T04:41:03.891Z,9.17
2022-10-12T04:43:05.828Z,8.60
2022-10-12T04:45:08.546Z,8.13
2022-10-12T04:47:10.491Z,8.47
2022-10-12T04:49:12.484Z,8.87
2022-10-12T04:51:14.468Z,8.10
2022-10-12T04:53:16.366Z,7.70
2022-10-12T04:55:18.502Z,7.43
2022-10-12T04:57:20.526Z,8.20
2022-10-12T04:59:22.487Z,8.43
2022-10-12T05:01:24.407Z,7.30
2022-10-12T05:03:26.578Z,7.47
2022-10-12T05:05:28.578Z,9.53
2022-10-12T05:07:30.556Z,8.27
2022-10-12T05:09:32.660Z,8.60
2022-10-12T05:11:34.611Z,7.53
2022-10-12T05:13:36.583Z,7.43
2022-10-12T05:15:38.548Z,7.20
2022-10-12T05:17:40.592Z,7.40
2022-10-12T05:19:42.674Z,7.53
2022-10-12T05:21:44.588Z,7.23
2022-10-12T05:23:50.863Z,6.93
2022-10-12T05:25:55.875Z,7.70
2022-10-12T05:27:57.875Z,8.37
2022-10-12T05:29:59.787Z,6.97
2022-10-12T05:32:01.720Z,7.23
2022-10-12T05:34:03.667Z,7.53
2022-10-12T05:36:05.967Z,7.20
2022-10-12T05:38:07.930Z,7.60
2022-10-12T05:40:10.396Z,8.03
2022-10-12T05:42:12.626Z,9.20
2022-10-12T05:44:14.570Z,8.30
2022-10-12T05:46:16.582Z,8.50
2022-10-12T05:48:18.613Z,8.93
2022-10-12T05:50:21.330Z,9.70
2022-10-12T05:52:23.279Z,7.57
2022-10-12T05:54:25.248Z,8.80
2022-10-12T05:56:27.252Z,9.03
2022-10-12T05:58:31.032Z,8.10
2022-10-12T06:00:33.044Z,8.60
2022-10-12T06:02:35.761Z,7.80
2022-10-12T06:04:37.931Z,7.63
2022-10-12T06:06:39.872Z,8.47
2022-10-12T06:08:41.863Z,8.40
2022-10-12T06:10:45.961Z,8.90
2022-10-12T06:12:48.095Z,7.90
2022-10-12T06:14:50.440Z,9.70
2022-10-12T06:16:54.513Z,9.40
2022-10-12T06:18:56.666Z,9.73
2022-10-12T06:23:21.351Z,9.13
2022-10-12T06:25:23.321Z,9.00
2022-10-12T06:27:25.370Z,9.73
2022-10-12T06:29:27.397Z,9.70
2022-10-12T06:31:29.608Z,8.50
2022-10-12T06:33:31.680Z,7.63
2022-10-12T06:35:34.188Z,7.50
2022-10-12T06:37:49.921Z,9.17
2022-10-12T06:39:52.439Z,7.43
2022-10-12T06:41:54.639Z,8.03
2022-10-12T06:43:56.559Z,7.60
2022-10-12T06:46:04.153Z,7.60
2022-10-12T06:48:06.162Z,7.50
2022-10-12T06:50:09.188Z,7.70
2022-10-12T06:52:11.102Z,7.47
2022-10-12T06:54:13.117Z,8.17
2022-10-12T06:56:15.084Z,7.73
2022-10-12T06:58:17.083Z,8.03
2022-10-12T07:00:19.044Z,7.97
2022-10-12T07:02:21.021Z,7.47
2022-10-12T07:04:22.981Z,8.20
2022-10-12T07:06:24.907Z,7.27
2022-10-12T07:08:26.890Z,7.20
2022-10-12T07:10:28.926Z,7.90
2022-10-12T07:12:30.882Z,7.53
2022-10-12T07:14:32.798Z,7.43
2022-10-12T07:16:34.964Z,7.80
2022-10-12T07:18:37.101Z,6.80
2022-10-12T07:20:40.473Z,7.40
2022-10-12T07:22:42.540Z,7.03
2022-10-12T07:24:44.621Z,6.73
2022-10-12T07:26:46.552Z,6.10
2022-10-12T07:28:48.621Z,5.63
2022-10-12T07:30:50.718Z,5.93
2022-10-12T07:32:54.517Z,5.90
2022-10-12T07:34:57.013Z,6.20
2022-10-12T07:37:00.009Z,5.57
2022-10-12T07:39:02.067Z,5.30
2022-10-12T07:41:04.585Z,4.60
2022-10-12T07:43:15.818Z,3.57
2022-10-12T07:45:18.629Z,4.00
2022-10-12T07:47:20.661Z,3.97
2022-10-12T07:49:22.704Z,4.30
2022-10-12T07:51:24.752Z,3.53
2022-10-12T07:53:26.687Z,3.27
2022-10-12T07:55:31.842Z,3.60
2022-10-12T07:57:34.261Z,3.10
2022-10-12T07:59:36.290Z,3.47
2022-10-12T08:01:38.368Z,3.60
2022-10-12T08:03:40.453Z,3.50
2022-10-12T08:05:42.769Z,3.50
2022-10-12T08:07:44.736Z,3.03
2022-10-12T08:09:48.463Z,3.13
2022-10-12T08:11:50.504Z,3.80
2022-10-12T08:13:52.624Z,3.67
2022-10-12T08:15:54.613Z,3.83
2022-10-12T08:17:56.580Z,4.60
2022-10-12T08:19:58.552Z,5.47
2022-10-12T08:22:00.468Z,4.60
2022-10-12T08:24:02.408Z,4.93
2022-10-12T08:26:05.158Z,4.20
2022-10-12T08:28:07.400Z,4.40
2022-10-12T08:30:09.753Z,5.20
2022-10-12T08:32:11.867Z,5.57
2022-10-12T08:34:13.776Z,6.10
2022-10-12T08:36:15.819Z,9.77
2022-10-12T08:38:17.788Z,4.10
2022-10-12T08:40:30.935Z,5.50
2022-10-12T08:42:53.294Z,4.40
2022-10-12T08:45:21.189Z,4.37
2022-10-12T08:47:35.113Z,4.17
2022-10-12T08:49:40.173Z,3.50
2022-10-12T08:51:54.848Z,4.03
2022-10-12T08:54:07.893Z,4.30
2022-10-12T08:56:09.950Z,5.40
2022-10-12T08:58:18.551Z,4.37
2022-10-12T09:00:20.612Z,4.90
2022-10-12T09:02:47.194Z,4.23
2022-10-12T09:04:57.447Z,4.90
2022-10-12T09:07:29.524Z,3.60
2022-10-12T09:09:46.835Z,3.60
2022-10-12T09:12:15.016Z,3.57
2022-10-12T09:14:27.806Z,4.00
2022-10-12T09:16:31.631Z,4.30
2022-10-12T09:18:41.481Z,4.23
2022-10-12T09:20:51.585Z,3.80
2022-10-12T09:23:05.040Z,3.73
2022-10-12T09:25:13.080Z,5.60
2022-10-12T09:27:17.776Z,3.53
2022-10-12T09:29:31.288Z,3.47
2022-10-12T09:31:39.131Z,2.63
2022-10-12T09:33:49.648Z,3.17
2022-10-12T09:35:53.103Z,3.00
2022-10-12T09:37:55.073Z,3.63
2022-10-12T09:39:57.487Z,2.87
2022-10-12T09:41:59.707Z,3.77
2022-10-12T09:44:04.062Z,3.60
2022-10-12T09:46:08.373Z,2.90
2022-10-12T09:48:16.108Z,2.97
2022-10-12T09:50:38.359Z,3.00
2022-10-12T09:52:43.332Z,2.80
2022-10-12T09:54:51.027Z,2.60
2022-10-12T09:56:55.346Z,3.20
2022-10-12T09:59:01.433Z,3.30
2022-10-12T10:01:28.232Z,2.80
2022-10-12T10:03:31.443Z,3.50
2022-10-12T10:05:34.695Z,2.97
2022-10-12T10:07:36.667Z,2.83
2022-10-12T10:09:38.661Z,3.00
2022-10-12T10:11:40.570Z,2.90
2022-10-12T10:13:49.869Z,2.57
2022-10-12T10:16:01.779Z,2.73
2022-10-12T10:18:06.578Z,2.80
2022-10-12T10:20:24.633Z,2.70
2022-10-12T10:22:26.724Z,3.10
2022-10-12T10:24:31.636Z,2.23
2022-10-12T10:26:54.087Z,3.40
2022-10-12T10:29:04.157Z,2.17
2022-10-12T10:31:17.257Z,2.47
2022-10-12T10:33:19.541Z,2.20
2022-10-12T10:35:22.425Z,2.57
2022-10-12T10:37:24.440Z,2.30
2022-10-12T10:39:29.097Z,2.10
2022-10-12T10:41:42.586Z,2.90
2022-10-12T10:43:47.379Z,2.13
2022-10-12T10:45:55.122Z,2.50
2022-10-12T10:48:01.548Z,2.47
2022-10-12T10:50:07.809Z,2.53
2022-10-12T10:52:39.009Z,1.87
2022-10-12T10:54:41.065Z,2.47
2022-10-12T10:56:44.226Z,2.23
2022-10-12T10:58:50.995Z,2.37
2022-10-12T11:00:56.430Z,2.50
2022-10-12T11:03:02.879Z,2.80
2022-10-12T11:05:12.275Z,2.10
2022-10-12T11:07:30.735Z,2.47
2022-10-12T11:09:44.073Z,2.00
2022-10-12T11:11:49.310Z,1.73
2022-10-12T11:13:55.798Z,2.40
2022-10-12T11:16:01.003Z,1.90
2022-10-12T11:18:33.934Z,2.87
2022-10-12T11:20:42.018Z,2.40
2022-10-12T11:23:12.997Z,1.83
2022-10-12T11:25:29.390Z,2.27
2022-10-12T11:27:37.474Z,2.80
2022-10-12T11:29:39.480Z,2.97
2022-10-12T11:31:56.095Z,2.43
2022-10-12T11:34:03.178Z,2.07
2022-10-12T11:36:11.624Z,1.90
2022-10-12T11:38:25.565Z,2.00
2022-10-12T11:42:58.477Z,2.07
2022-10-12T11:45:03.882Z,2.53
2022-10-12T11:47:29.907Z,2.23
2022-10-12T11:49:35.566Z,2.17
2022-10-12T11:51:37.469Z,2.10
2022-10-12T11:54:08.912Z,2.20
2022-10-12T11:56:25.475Z,2.30
2022-10-12T11:58:55.814Z,2.40
2022-10-12T12:01:29.656Z,2.23
2022-10-12T12:03:44.032Z,2.17
2022-10-12T12:05:46.046Z,2.33
2022-10-12T12:07:49.038Z,2.00
2022-10-12T12:09:51.881Z,2.43
2022-10-12T12:12:07.975Z,2.77
2022-10-12T12:14:45.728Z,2.53
2022-10-12T12:16:49.357Z,2.77
2022-10-12T12:19:14.189Z,2.40
2022-10-12T12:21:16.212Z,2.27
2022-10-12T12:23:38.906Z,2.80
2022-10-12T12:25:40.893Z,2.30
2022-10-12T12:27:59.141Z,2.43
2022-10-12T12:30:03.393Z,2.20
2022-10-12T12:32:05.447Z,2.40
2022-10-12T12:34:16.246Z,2.67
2022-10-12T12:36:35.459Z,2.53
2022-10-12T12:38:47.701Z,2.93
2022-10-12T12:40:57.262Z,2.90
2022-10-12T12:43:30.720Z,2.97
2022-10-12T12:45:32.624Z,2.63
2022-10-12T12:47:46.520Z,3.20
2022-10-12T12:49:54.923Z,2.70
2022-10-12T12:51:58.068Z,2.77
2022-10-12T12:54:02.926Z,2.90
2022-10-12T12:56:06.695Z,3.70
2022-10-12T12:58:11.532Z,3.40
2022-10-12T13:00:13.829Z,3.03
2022-10-12T13:02:43.395Z,2.60
2022-10-12T13:05:06.756Z,3.40
2022-10-12T13:07:30.654Z,3.37
2022-10-12T13:09:41.383Z,2.63
2022-10-12T13:12:00.829Z,2.77
2022-10-12T13:14:31.372Z,3.67
2022-10-12T13:19:22.431Z,3.13
2022-10-12T13:21:40.056Z,3.00
2022-10-12T13:23:45.135Z,2.70
2022-10-12T13:25:56.263Z,2.57
2022-10-12T13:28:00.807Z,3.00
2022-10-12T13:30:15.926Z,3.27
2022-10-12T13:32:32.472Z,2.80
2022-10-12T13:34:55.439Z,3.30
2022-10-12T13:37:08.814Z,2.83
2022-10-12T13:39:19.428Z,3.17
2022-10-12T13:41:21.451Z,3.03
2022-10-12T13:43:23.299Z,2.33
2022-10-12T13:45:25.300Z,2.70
2022-10-12T13:47:30.608Z,3.70
2022-10-12T13:49:42.502Z,3.90
2022-10-12T13:51:48.096Z,3.40
2022-10-12T13:53:50.174Z,3.40
2022-10-12T13:55:59.656Z,4.00
2022-10-12T13:58:01.603Z,3.83
2022-10-12T14:00:19.374Z,3.40
2022-10-12T14:02:26.752Z,3.80
2022-10-12T14:04:31.189Z,3.40
2022-10-12T14:06:36.794Z,3.30
2022-10-12T14:08:38.930Z,3.10
2022-10-12T14:10:41.580Z,3.40
2022-10-12T14:12:45.969Z,2.83
2022-10-12T14:14:48.490Z,3.33
2022-10-12T14:16:51.310Z,3.83
2022-10-12T14:18:53.460Z,3.80
2022-10-12T14:21:26.629Z,2.90
2022-10-12T14:23:28.602Z,3.17
2022-10-12T14:25:31.857Z,2.93
2022-10-12T14:27:34.197Z,10.30
2022-10-12T14:29:39.475Z,5.30
2022-10-12T14:31:55.888Z,3.70
2022-10-12T14:34:26.648Z,3.87
2022-10-12T14:36:28.913Z,3.60
2022-10-12T14:38:33.807Z,2.80
2022-10-12T14:40:41.815Z,4.73
2022-10-12T14:42:57.297Z,3.07
2022-10-12T14:45:00.310Z,3.67
2022-10-12T14:47:06.067Z,3.80
2022-10-12T14:49:19.394Z,3.23
2022-10-12T14:51:21.466Z,3.00
2022-10-12T14:53:29.117Z,2.90
2022-10-12T14:55:33.206Z,3.10
2022-10-12T14:57:35.219Z,4.50
2022-10-12T14:59:37.255Z,3.50
2022-10-12T15:01:41.712Z,3.20
2022-10-12T15:03:44.576Z,3.20
2022-10-12T15:05:46.578Z,3.30
2022-10-12T15:07:49.238Z,3.20
2022-10-12T15:09:51.552Z,3.73
2022-10-12T15:11:53.554Z,7.33
2022-10-12T15:13:55.538Z,6.40
2022-10-12T15:16:00.629Z,6.90
2022-10-12T15:18:02.699Z,3.47
2022-10-12T15:20:04.942Z,4.20
2022-10-12T15:22:08.256Z,3.23
2022-10-12T15:24:14.758Z,3.30
2022-10-12T15:26:17.890Z,3.43
2022-10-12T15:28:20.787Z,3.90
2022-10-12T15:30:22.850Z,5.10
2022-10-12T15:32:25.246Z,3.43
2022-10-12T15:34:27.449Z,4.00
2022-10-12T15:36:29.370Z,4.70
2022-10-12T15:38:31.374Z,4.20
2022-10-12T15:40:34.481Z,4.20
2022-10-12T15:42:38.421Z,4.30
2022-10-12T15:44:41.362Z,4.03
2022-10-12T15:46:44.228Z,3.47
2022-10-12T15:48:46.190Z,4.30
2022-10-12T15:50:49.272Z,3.90
2022-10-12T15:52:51.516Z,3.57
2022-10-12T15:54:53.511Z,4.10
2022-10-12T15:56:55.669Z,4.83
2022-10-12T15:58:57.904Z,3.60
2022-10-12T16:00:59.896Z,3.80
2022-10-12T16:03:02.098Z,3.67
2022-10-12T16:05:04.458Z,3.40
2022-10-12T16:07:06.390Z,3.90
2022-10-12T16:09:08.366Z,3.93
2022-10-12T16:11:15.625Z,4.10
2022-10-12T16:13:17.718Z,4.40
2022-10-12T16:15:22.830Z,3.57
2022-10-12T16:17:24.775Z,4.00
2022-10-12T16:19:26.736Z,4.10
2022-10-12T16:21:28.655Z,4.80
2022-10-12T16:23:32.866Z,4.50
2022-10-12T16:25:35.340Z,4.23
2022-10-12T16:27:37.558Z,4.30
2022-10-12T16:29:39.743Z,4.90
2022-10-12T16:33:45.461Z,4.07
2022-10-12T16:35:47.733Z,4.17
2022-10-12T16:37:49.744Z,4.43
2022-10-12T16:39:54.922Z,7.63
2022-10-12T16:41:56.966Z,7.67
2022-10-12T16:43:58.879Z,6.87
2022-10-12T16:46:00.863Z,7.47
2022-10-12T16:48:03.330Z,7.60
2022-10-12T16:50:06.154Z,8.10
2022-10-12T16:52:08.311Z,9.73
2022-10-12T16:54:10.346Z,9.30
2022-10-12T16:56:12.392Z,8.50
2022-10-12T16:58:14.800Z,8.73
2022-10-12T17:00:19.215Z,8.50
2022-10-12T17:02:21.373Z,8.60
2022-10-12T17:04:23.357Z,7.43
2022-10-12T17:06:25.396Z,9.00
2022-10-12T17:08:27.287Z,8.13
2022-10-12T17:10:29.319Z,7.93
2022-10-12T17:12:31.303Z,8.60
2022-10-12T17:14:33.279Z,8.13
2022-10-12T17:16:50.431Z,8.50
2022-10-12T17:18:58.188Z,8.70
2022-10-12T17:21:01.260Z,8.30
2022-10-12T17:23:03.804Z,7.03
2022-10-12T17:25:06.217Z,8.20
2022-10-12T17:27:09.785Z,8.70
2022-10-12T17:29:18.252Z,7.03
2022-10-12T17:31:20.465Z,8.43
2022-10-12T17:33:22.429Z,8.47
2022-10-12T17:35:24.412Z,7.80
2022-10-12T17:37:26.419Z,8.53
2022-10-12T17:39:31.019Z,8.20
2022-10-12T17:41:33.001Z,10.40
2022-10-12T17:43:34.898Z,9.23
2022-10-12T17:45:39.949Z,9.23
2022-10-12T17:47:42.002Z,9.60
2022-10-12T17:49:43.921Z,10.03
2022-10-12T17:51:48.162Z,9.40
2022-10-12T17:53:50.197Z,8.73
2022-10-12T17:55:55.590Z,8.83
2022-10-12T17:58:00.134Z,9.20
2022-10-12T18:00:02.520Z,9.17
2022-10-12T18:02:13.557Z,9.80
2022-10-12T18:04:15.753Z,11.60
2022-10-12T18:06:20.508Z,10.50
2022-10-12T18:08:22.455Z,9.40
2022-10-12T18:10:27.662Z,10.60
2022-10-12T18:12:30.907Z,9.00
2022-10-12T18:14:32.940Z,10.97
2022-10-12T18:16:35.327Z,9.80
2022-10-12T18:18:38.064Z,8.67
2022-10-12T18:20:41.903Z,9.37
2022-10-12T18:22:44.236Z,9.40
2022-10-12T18:24:46.297Z,10.27
2022-10-12T18:26:48.306Z,9.27
2022-10-12T18:28:55.778Z,9.77
2022-10-12T18:30:57.814Z,8.73
2022-10-12T18:33:00.376Z,9.13
2022-10-12T18:35:07.182Z,9.00
2022-10-12T18:37:09.303Z,9.63
2022-10-12T18:39:11.285Z,9.00
2022-10-12T18:41:16.762Z,8.10
2022-10-12T18:43:18.849Z,8.17
2022-10-12T18:45:20.792Z,8.53
2022-10-12T18:47:24.556Z,7.60
2022-10-12T18:49:26.666Z,7.47
2022-10-12T18:51:31.404Z,7.20
2022-10-12T18:53:34.220Z,7.73
2022-10-12T18:55:38.205Z,7.47
2022-10-12T18:57:40.313Z,7.20
2022-10-12T18:59:42.279Z,6.50
2022-10-12T19:01:45.088Z,7.50
2022-10-12T19:03:48.188Z,5.80
2022-10-12T19:05:50.121Z,6.60
2022-10-12T19:07:52.040Z,6.43
2022-10-12T19:09:54.133Z,6.83
2022-10-12T19:11:56.323Z,6.10
2022-10-12T19:14:06.847Z,6.50
2022-10-12T19:16:18.108Z,6.50
2022-10-12T19:18:20.074Z,7.20
2022-10-12T19:20:22.050Z,6.40
2022-10-12T19:22:24.012Z,6.70
2022-10-12T19:24:25.945Z,5.90
2022-10-12T19:26:27.980Z,5.77
2022-10-12T19:28:29.989Z,6.20
2022-10-12T19:30:31.985Z,6.10
2022-10-12T19:32:33.973Z,6.67
2022-10-12T19:34:35.886Z,6.37
2022-10-12T19:36:39.525Z,6.23
2022-10-12T19:38:42.043Z,6.90
2022-10-12T19:40:44.011Z,7.33
2022-10-12T19:42:48.364Z,7.80
2022-10-12T19:44:50.273Z,7.50
2022-10-12T19:46:53.640Z,7.93
2022-10-12T19:48:56.920Z,7.50
2022-10-12T19:51:03.528Z,7.83
2022-10-12T19:53:05.839Z,8.00
2022-10-12T19:55:08.255Z,7.97
2022-10-12T19:57:10.601Z,9.93
2022-10-12T19:59:12.754Z,8.93
2022-10-12T20:01:17.855Z,9.03
2022-10-12T20:03:19.888Z,8.07
2022-10-12T20:05:21.843Z,8.50
2022-10-12T20:07:23.924Z,7.83
2022-10-12T20:09:25.872Z,8.37
2022-10-12T20:11:28.147Z,8.27
2022-10-12T20:13:30.347Z,9.23
2022-10-12T20:15:32.308Z,8.90
2022-10-12T20:17:36.007Z,8.67
2022-10-12T20:19:38.265Z,9.37
2022-10-12T20:21:40.313Z,8.47
2022-10-12T20:23:43.039Z,8.63
2022-10-12T20:25:48.274Z,9.37
2022-10-12T20:27:50.225Z,8.43
2022-10-12T20:29:52.180Z,8.30
2022-10-12T20:31:54.167Z,8.33
2022-10-12T20:33:57.812Z,8.97
2022-10-12T20:36:00.069Z,8.80
2022-10-12T20:38:02.503Z,8.93
2022-10-12T20:40:04.920Z,9.20
2022-10-12T20:42:06.812Z,7.90
2022-10-12T20:44:09.791Z,8.67
2022-10-12T20:46:14.810Z,7.37
2022-10-12T20:48:16.978Z,8.37
2022-10-12T20:50:19.240Z,8.50
2022-10-12T20:52:21.572Z,7.90
2022-10-12T20:54:23.725Z,8.87
2022-10-12T20:56:26.837Z,8.40
2022-10-12T20:58:28.873Z,7.73
2022-10-12T21:00:31.028Z,7.80
2022-10-12T21:02:35.872Z,7.73
2022-10-12T21:04:38.592Z,7.90
2022-10-12T21:06:42.546Z,7.53
2022-10-12T21:08:49.284Z,8.70
2022-10-12T21:10:51.198Z,7.47
2022-10-12T21:12:53.142Z,7.33
2022-10-12T21:14:55.103Z,8.20
2022-10-12T21:16:57.044Z,8.60
2022-10-12T21:18:59.016Z,9.30
2022-10-12T21:21:05.017Z,9.27
2022-10-12T21:23:06.948Z,10.20
2022-10-12T21:25:09.144Z,9.30
2022-10-12T21:27:11.150Z,9.70
2022-10-12T21:29:13.348Z,8.27
2022-10-12T21:31:16.064Z,8.13
2022-10-12T21:33:18.394Z,9.00
2022-10-12T21:35:20.381Z,8.57
2022-10-12T21:37:22.316Z,8.30
2022-10-12T21:39:24.393Z,7.57
2022-10-12T21:41:27.835Z,8.40
2022-10-12T21:43:29.876Z,8.07
2022-10-12T21:45:32.620Z,7.50
2022-10-12T21:47:34.509Z,8.60
2022-10-12T21:49:36.492Z,9.30
2022-10-12T21:51:38.476Z,7.90
2022-10-12T21:53:40.962Z,7.07
2022-10-12T21:55:42.915Z,8.57
2022-10-12T21:57:44.872Z,9.40
2022-10-12T21:59:48.360Z,8.63
2022-10-12T22:01:50.328Z,8.30
2022-10-12T22:03:59.294Z,8.07
2022-10-12T22:06:01.316Z,9.20
2022-10-12T22:08:03.179Z,8.70
2022-10-12T22:10:06.043Z,8.00
2022-10-12T22:12:08.854Z,8.60
2022-10-12T22:14:14.140Z,7.97
2022-10-12T22:16:18.176Z,7.63
2022-10-12T22:18:20.090Z,7.83
2022-10-12T22:20:22.122Z,7.77
2022-10-12T22:22:27.637Z,7.63
2022-10-12T22:24:29.691Z,7.33
2022-10-12T22:26:32.247Z,8.13
2022-10-12T22:28:36.467Z,8.00
2022-10-12T22:30:41.491Z,7.00
2022-10-12T22:32:43.429Z,7.47
2022-10-12T22:34:45.387Z,8.00
2022-10-12T22:36:47.298Z,7.17
2022-10-12T22:38:54.949Z,7.10
2022-10-12T22:41:08.426Z,7.00
2022-10-12T22:43:16.908Z,7.83
2022-10-12T22:45:18.880Z,7.80
2022-10-12T22:47:20.886Z,7.67
2022-10-12T22:49:22.850Z,6.30
2022-10-12T22:51:33.230Z,7.17
2022-10-12T22:53:35.611Z,7.37
2022-10-12T22:55:37.585Z,6.80
2022-10-12T22:57:39.603Z,6.90
2022-10-12T22:59:41.888Z,6.47
2022-10-12T23:01:44.139Z,6.40
2022-10-12T23:03:46.068Z,5.80
2022-10-12T23:05:50.256Z,6.70
2022-10-12T23:07:52.276Z,7.00
2022-10-12T23:09:54.204Z,6.90
2022-10-12T23:11:56.125Z,6.87
2022-10-12T23:13:58.259Z,6.90
2022-10-12T23:16:19.937Z,6.20
2022-10-12T23:18:21.848Z,6.40
2022-10-12T23:20:23.944Z,7.10
2022-10-12T23:22:28.080Z,6.97
2022-10-12T23:24:30.059Z,7.00
2022-10-12T23:26:33.200Z,7.37
2022-10-12T23:28:35.554Z,6.47
2022-10-12T23:30:38.093Z,6.70
2022-10-12T23:32:40.437Z,7.00
2022-10-12T23:34:42.626Z,7.23
2022-10-12T23:36:44.547Z,7.13
2022-10-12T23:38:46.512Z,7.10
2022-10-12T23:40:48.442Z,6.80
2022-10-12T23:42:50.430Z,7.30
2022-10-12T23:44:52.356Z,7.30
2022-10-12T23:46:54.313Z,7.20
2022-10-12T23:48:56.485Z,6.50
2022-10-12T23:50:58.585Z,7.30
2022-10-12T23:53:00.559Z,7.43
2022-10-12T23:55:02.480Z,7.00
2022-10-12T23:57:04.466Z,7.20
2022-10-12T23:59:06.370Z,7.60
